sensor_id;sensor_type;location;lat;lon;timestamp;P1;durP1;ratioP1;P2;durP2;ratioP2
76284;SDS011;71676;50.998;7.098;2023-09-07T00:00:30;6.40;;;3.30;;
76284;SDS011;71676;50.998;7.098;2023-09-07T00:02:57;7.20;;;3.72;;
76284;SDS011;71676;50.998;7.098;2023-09-07T00:05:25;7.20;;;3.72;;
76284;SDS011;71676;50.998;7.098;2023-09-07T00:07:53;8.02;;;4.10;;
76284;SDS011;71676;50.998;7.098;2023-09-07T00:10:21;7.38;;;3.88;;
76284;SDS011;71676;50.998;7.098;2023-09-07T00:12:47;6.57;;;3.78;;
76284;SDS011;71676;50.998;7.098;2023-09-07T00:15:15;7.88;;;3.90;;
76284;SDS011;71676;50.998;7.098;2023-09-07T00:17:44;8.63;;;4.00;;
76284;SDS011;71676;50.998;7.098;2023-09-07T00:20:11;7.63;;;3.67;;
76284;SDS011;71676;50.998;7.098;2023-09-07T00:22:39;8.95;;;3.53;;
76284;SDS011;71676;50.998;7.098;2023-09-07T00:25:07;8.70;;;4.18;;
76284;SDS011;71676;50.998;7.098;2023-09-07T00:27:34;8.50;;;3.85;;
76284;SDS011;71676;50.998;7.098;2023-09-07T00:30:01;8.02;;;4.03;;
76284;SDS011;71676;50.998;7.098;2023-09-07T00:32:29;8.63;;;3.90;;
76284;SDS011;71676;50.998;7.098;2023-09-07T00:34:56;8.15;;;4.03;;
76284;SDS011;71676;50.998;7.098;2023-09-07T00:37:22;8.15;;;4.22;;
76284;SDS011;71676;50.998;7.098;2023-09-07T00:39:49;7.00;;;3.60;;
76284;SDS011;71676;50.998;7.098;2023-09-07T00:42:19;8.60;;;4.00;;
76284;SDS011;71676;50.998;7.098;2023-09-07T00:44:45;8.32;;;4.25;;
76284;SDS011;71676;50.998;7.098;2023-09-07T00:47:13;8.43;;;3.92;;
76284;SDS011;71676;50.998;7.098;2023-09-07T00:49:39;7.57;;;3.72;;
76284;SDS011;71676;50.998;7.098;2023-09-07T00:52:06;7.60;;;3.55;;
76284;SDS011;71676;50.998;7.098;2023-09-07T00:54:34;7.95;;;4.05;;
76284;SDS011;71676;50.998;7.098;2023-09-07T00:57:03;8.63;;;4.00;;
76284;SDS011;71676;50.998;7.098;2023-09-07T00:59:33;6.60;;;3.55;;
76284;SDS011;71676;50.998;7.098;2023-09-07T01:02:00;7.53;;;3.95;;
76284;SDS011;71676;50.998;7.098;2023-09-07T01:04:27;7.00;;;3.97;;
76284;SDS011;71676;50.998;7.098;2023-09-07T01:06:55;9.18;;;3.95;;
76284;SDS011;71676;50.998;7.098;2023-09-07T01:09:28;8.20;;;4.22;;
76284;SDS011;71676;50.998;7.098;2023-09-07T01:11:58;7.35;;;3.78;;
76284;SDS011;71676;50.998;7.098;2023-09-07T01:14:24;7.25;;;3.83;;
76284;SDS011;71676;50.998;7.098;2023-09-07T01:16:53;7.32;;;3.63;;
76284;SDS011;71676;50.998;7.098;2023-09-07T01:19:20;8.63;;;4.53;;
76284;SDS011;71676;50.998;7.098;2023-09-07T01:21:48;9.40;;;4.00;;
76284;SDS011;71676;50.998;7.098;2023-09-07T01:24:15;8.85;;;4.55;;
76284;SDS011;71676;50.998;7.098;2023-09-07T01:26:42;7.43;;;3.80;;
76284;SDS011;71676;50.998;7.098;2023-09-07T01:29:09;7.82;;;4.15;;
76284;SDS011;71676;50.998;7.098;2023-09-07T01:31:35;6.75;;;3.90;;
76284;SDS011;71676;50.998;7.098;2023-09-07T01:34:03;9.77;;;4.38;;
76284;SDS011;71676;50.998;7.098;2023-09-07T01:36:31;8.23;;;4.28;;
76284;SDS011;71676;50.998;7.098;2023-09-07T01:38:59;7.82;;;4.28;;
76284;SDS011;71676;50.998;7.098;2023-09-07T01:41:26;8.57;;;4.68;;
76284;SDS011;71676;50.998;7.098;2023-09-07T01:43:54;8.15;;;4.10;;
76284;SDS011;71676;50.998;7.098;2023-09-07T01:46:20;8.20;;;4.10;;
76284;SDS011;71676;50.998;7.098;2023-09-07T01:48:47;9.73;;;4.97;;
76284;SDS011;71676;50.998;7.098;2023-09-07T01:51:14;8.63;;;4.28;;
76284;SDS011;71676;50.998;7.098;2023-09-07T01:53:40;7.80;;;4.35;;
76284;SDS011;71676;50.998;7.098;2023-09-07T01:56:08;8.57;;;4.43;;
76284;SDS011;71676;50.998;7.098;2023-09-07T01:58:35;9.75;;;4.47;;
76284;SDS011;71676;50.998;7.098;2023-09-07T02:01:02;7.20;;;4.10;;
76284;SDS011;71676;50.998;7.098;2023-09-07T02:03:29;8.02;;;4.35;;
76284;SDS011;71676;50.998;7.098;2023-09-07T02:05:55;8.25;;;3.78;;
76284;SDS011;71676;50.998;7.098;2023-09-07T02:08:22;7.80;;;3.97;;
76284;SDS011;71676;50.998;7.098;2023-09-07T02:10:48;7.97;;;4.18;;
76284;SDS011;71676;50.998;7.098;2023-09-07T02:13:16;8.82;;;3.95;;
76284;SDS011;71676;50.998;7.098;2023-09-07T02:15:43;7.95;;;4.38;;
76284;SDS011;71676;50.998;7.098;2023-09-07T02:18:10;9.15;;;4.15;;
76284;SDS011;71676;50.998;7.098;2023-09-07T02:20:36;8.32;;;4.22;;
76284;SDS011;71676;50.998;7.098;2023-09-07T02:23:03;7.63;;;3.95;;
76284;SDS011;71676;50.998;7.098;2023-09-07T02:25:29;7.55;;;4.05;;
76284;SDS011;71676;50.998;7.098;2023-09-07T02:27:56;8.73;;;4.10;;
76284;SDS011;71676;50.998;7.098;2023-09-07T02:30:24;7.43;;;4.47;;
76284;SDS011;71676;50.998;7.098;2023-09-07T02:32:51;7.75;;;4.20;;
76284;SDS011;71676;50.998;7.098;2023-09-07T02:35:18;8.63;;;4.45;;
76284;SDS011;71676;50.998;7.098;2023-09-07T02:37:45;9.48;;;4.50;;
76284;SDS011;71676;50.998;7.098;2023-09-07T02:40:11;8.23;;;4.53;;
76284;SDS011;71676;50.998;7.098;2023-09-07T02:42:38;7.72;;;3.90;;
76284;SDS011;71676;50.998;7.098;2023-09-07T02:45:05;9.18;;;4.50;;
76284;SDS011;71676;50.998;7.098;2023-09-07T02:47:33;9.25;;;4.10;;
76284;SDS011;71676;50.998;7.098;2023-09-07T02:50:00;9.23;;;4.30;;
76284;SDS011;71676;50.998;7.098;2023-09-07T02:52:27;8.73;;;4.82;;
76284;SDS011;71676;50.998;7.098;2023-09-07T02:54:53;8.48;;;4.25;;
76284;SDS011;71676;50.998;7.098;2023-09-07T02:57:20;7.65;;;3.92;;
76284;SDS011;71676;50.998;7.098;2023-09-07T02:59:46;9.60;;;4.50;;
76284;SDS011;71676;50.998;7.098;2023-09-07T03:02:13;11.55;;;4.55;;
76284;SDS011;71676;50.998;7.098;2023-09-07T03:04:41;8.02;;;4.25;;
76284;SDS011;71676;50.998;7.098;2023-09-07T03:07:07;7.00;;;3.83;;
76284;SDS011;71676;50.998;7.098;2023-09-07T03:09:34;8.02;;;4.32;;
76284;SDS011;71676;50.998;7.098;2023-09-07T03:12:01;7.63;;;4.28;;
76284;SDS011;71676;50.998;7.098;2023-09-07T03:14:27;9.85;;;4.40;;
76284;SDS011;71676;50.998;7.098;2023-09-07T03:16:54;7.50;;;4.00;;
76284;SDS011;71676;50.998;7.098;2023-09-07T03:19:20;8.55;;;3.90;;
76284;SDS011;71676;50.998;7.098;2023-09-07T03:21:48;7.00;;;3.97;;
76284;SDS011;71676;50.998;7.098;2023-09-07T03:24:15;7.72;;;4.10;;
76284;SDS011;71676;50.998;7.098;2023-09-07T03:26:42;7.78;;;4.50;;
76284;SDS011;71676;50.998;7.098;2023-09-07T03:29:09;8.32;;;4.32;;
76284;SDS011;71676;50.998;7.098;2023-09-07T03:31:35;8.23;;;4.22;;
76284;SDS011;71676;50.998;7.098;2023-09-07T03:34:02;7.90;;;4.03;;
76284;SDS011;71676;50.998;7.098;2023-09-07T03:36:28;7.75;;;3.70;;
76284;SDS011;71676;50.998;7.098;2023-09-07T03:38:57;7.90;;;4.38;;
76284;SDS011;71676;50.998;7.098;2023-09-07T03:41:23;7.43;;;4.40;;
76284;SDS011;71676;50.998;7.098;2023-09-07T03:43:55;8.27;;;4.50;;
76284;SDS011;71676;50.998;7.098;2023-09-07T03:46:21;8.38;;;4.47;;
76284;SDS011;71676;50.998;7.098;2023-09-07T03:48:48;9.38;;;4.47;;
76284;SDS011;71676;50.998;7.098;2023-09-07T03:51:15;8.13;;;4.57;;
76284;SDS011;71676;50.998;7.098;2023-09-07T03:53:41;7.70;;;4.13;;
76284;SDS011;71676;50.998;7.098;2023-09-07T03:56:09;8.02;;;4.25;;
76284;SDS011;71676;50.998;7.098;2023-09-07T03:58:36;6.55;;;3.60;;
76284;SDS011;71676;50.998;7.098;2023-09-07T04:01:02;7.28;;;3.97;;
76284;SDS011;71676;50.998;7.098;2023-09-07T04:03:29;8.32;;;4.22;;
76284;SDS011;71676;50.998;7.098;2023-09-07T04:05:56;7.30;;;4.22;;
76284;SDS011;71676;50.998;7.098;2023-09-07T04:08:23;9.15;;;4.30;;
76284;SDS011;71676;50.998;7.098;2023-09-07T04:10:50;7.68;;;4.22;;
76284;SDS011;71676;50.998;7.098;2023-09-07T04:13:18;7.93;;;4.05;;
76284;SDS011;71676;50.998;7.098;2023-09-07T04:15:44;10.60;;;4.25;;
76284;SDS011;71676;50.998;7.098;2023-09-07T04:18:11;7.05;;;4.10;;
76284;SDS011;71676;50.998;7.098;2023-09-07T04:20:40;8.85;;;3.97;;
76284;SDS011;71676;50.998;7.098;2023-09-07T04:23:07;8.85;;;4.30;;
76284;SDS011;71676;50.998;7.098;2023-09-07T04:25:33;8.30;;;4.55;;
76284;SDS011;71676;50.998;7.098;2023-09-07T04:28:00;7.45;;;4.03;;
76284;SDS011;71676;50.998;7.098;2023-09-07T04:30:28;8.07;;;4.43;;
76284;SDS011;71676;50.998;7.098;2023-09-07T04:32:54;8.38;;;4.20;;
76284;SDS011;71676;50.998;7.098;2023-09-07T04:35:26;8.15;;;4.20;;
76284;SDS011;71676;50.998;7.098;2023-09-07T04:37:54;8.10;;;4.50;;
76284;SDS011;71676;50.998;7.098;2023-09-07T04:40:21;8.27;;;4.63;;
76284;SDS011;71676;50.998;7.098;2023-09-07T04:42:48;8.13;;;4.38;;
76284;SDS011;71676;50.998;7.098;2023-09-07T04:45:15;8.93;;;3.95;;
76284;SDS011;71676;50.998;7.098;2023-09-07T04:47:43;11.43;;;4.50;;
76284;SDS011;71676;50.998;7.098;2023-09-07T04:50:10;6.88;;;3.97;;
76284;SDS011;71676;50.998;7.098;2023-09-07T04:52:37;8.68;;;4.25;;
76284;SDS011;71676;50.998;7.098;2023-09-07T04:55:04;8.93;;;4.47;;
76284;SDS011;71676;50.998;7.098;2023-09-07T04:57:31;7.55;;;4.32;;
76284;SDS011;71676;50.998;7.098;2023-09-07T04:59:58;7.65;;;4.25;;
76284;SDS011;71676;50.998;7.098;2023-09-07T05:02:25;8.88;;;4.35;;
76284;SDS011;71676;50.998;7.098;2023-09-07T05:04:53;8.70;;;4.63;;
76284;SDS011;71676;50.998;7.098;2023-09-07T05:07:19;10.40;;;4.28;;
76284;SDS011;71676;50.998;7.098;2023-09-07T05:09:46;8.65;;;4.30;;
76284;SDS011;71676;50.998;7.098;2023-09-07T05:12:13;9.48;;;3.70;;
76284;SDS011;71676;50.998;7.098;2023-09-07T05:14:43;8.45;;;4.70;;
76284;SDS011;71676;50.998;7.098;2023-09-07T05:17:10;7.35;;;4.07;;
76284;SDS011;71676;50.998;7.098;2023-09-07T05:19:37;8.38;;;4.20;;
76284;SDS011;71676;50.998;7.098;2023-09-07T05:22:05;9.15;;;3.80;;
76284;SDS011;71676;50.998;7.098;2023-09-07T05:24:31;7.88;;;4.00;;
76284;SDS011;71676;50.998;7.098;2023-09-07T05:26:58;8.90;;;3.50;;
76284;SDS011;71676;50.998;7.098;2023-09-07T05:29:24;8.98;;;4.05;;
76284;SDS011;71676;50.998;7.098;2023-09-07T05:31:51;7.60;;;4.00;;
76284;SDS011;71676;50.998;7.098;2023-09-07T05:34:17;7.88;;;4.50;;
76284;SDS011;71676;50.998;7.098;2023-09-07T05:36:44;8.45;;;4.57;;
76284;SDS011;71676;50.998;7.098;2023-09-07T05:39:12;8.35;;;4.25;;
76284;SDS011;71676;50.998;7.098;2023-09-07T05:41:39;7.88;;;3.92;;
76284;SDS011;71676;50.998;7.098;2023-09-07T05:44:05;6.90;;;3.67;;
76284;SDS011;71676;50.998;7.098;2023-09-07T05:46:32;7.72;;;3.88;;
76284;SDS011;71676;50.998;7.098;2023-09-07T05:48:58;11.15;;;5.28;;
76284;SDS011;71676;50.998;7.098;2023-09-07T05:51:25;7.25;;;3.78;;
76284;SDS011;71676;50.998;7.098;2023-09-07T05:53:53;8.27;;;4.25;;
76284;SDS011;71676;50.998;7.098;2023-09-07T05:56:22;8.60;;;4.57;;
76284;SDS011;71676;50.998;7.098;2023-09-07T05:58:48;8.85;;;4.70;;
76284;SDS011;71676;50.998;7.098;2023-09-07T06:01:15;7.32;;;3.92;;
76284;SDS011;71676;50.998;7.098;2023-09-07T06:03:41;10.68;;;5.60;;
76284;SDS011;71676;50.998;7.098;2023-09-07T06:06:08;9.52;;;5.22;;
76284;SDS011;71676;50.998;7.098;2023-09-07T06:08:35;6.32;;;4.05;;
76284;SDS011;71676;50.998;7.098;2023-09-07T06:11:01;8.30;;;4.10;;
76284;SDS011;71676;50.998;7.098;2023-09-07T06:13:29;9.20;;;4.30;;
76284;SDS011;71676;50.998;7.098;2023-09-07T06:15:56;10.95;;;4.80;;
76284;SDS011;71676;50.998;7.098;2023-09-07T06:18:24;9.25;;;4.55;;
76284;SDS011;71676;50.998;7.098;2023-09-07T06:20:50;8.73;;;4.43;;
76284;SDS011;71676;50.998;7.098;2023-09-07T06:23:17;9.05;;;4.60;;
76284;SDS011;71676;50.998;7.098;2023-09-07T06:25:43;8.27;;;4.82;;
76284;SDS011;71676;50.998;7.098;2023-09-07T06:28:10;7.68;;;4.60;;
76284;SDS011;71676;50.998;7.098;2023-09-07T06:30:39;9.48;;;5.05;;
76284;SDS011;71676;50.998;7.098;2023-09-07T06:33:06;7.32;;;4.30;;
76284;SDS011;71676;50.998;7.098;2023-09-07T06:35:32;7.78;;;4.13;;
76284;SDS011;71676;50.998;7.098;2023-09-07T06:38:00;8.13;;;4.47;;
76284;SDS011;71676;50.998;7.098;2023-09-07T06:40:27;7.78;;;4.25;;
76284;SDS011;71676;50.998;7.098;2023-09-07T06:42:54;7.13;;;3.83;;
76284;SDS011;71676;50.998;7.098;2023-09-07T06:45:22;8.30;;;4.90;;
76284;SDS011;71676;50.998;7.098;2023-09-07T06:47:50;10.13;;;4.90;;
76284;SDS011;71676;50.998;7.098;2023-09-07T06:50:17;12.20;;;5.10;;
76284;SDS011;71676;50.998;7.098;2023-09-07T06:52:44;9.40;;;4.97;;
76284;SDS011;71676;50.998;7.098;2023-09-07T06:55:10;9.52;;;5.20;;
76284;SDS011;71676;50.998;7.098;2023-09-07T06:57:37;11.43;;;5.20;;
76284;SDS011;71676;50.998;7.098;2023-09-07T07:00:04;8.57;;;4.75;;
76284;SDS011;71676;50.998;7.098;2023-09-07T07:02:31;10.77;;;4.85;;
76284;SDS011;71676;50.998;7.098;2023-09-07T07:05:00;9.20;;;4.80;;
76284;SDS011;71676;50.998;7.098;2023-09-07T07:07:28;9.73;;;4.70;;
76284;SDS011;71676;50.998;7.098;2023-09-07T07:09:55;11.05;;;4.55;;
76284;SDS011;71676;50.998;7.098;2023-09-07T07:12:22;11.20;;;5.05;;
76284;SDS011;71676;50.998;7.098;2023-09-07T07:14:49;8.50;;;4.68;;
76284;SDS011;71676;50.998;7.098;2023-09-07T07:17:15;8.30;;;4.72;;
76284;SDS011;71676;50.998;7.098;2023-09-07T07:19:42;11.25;;;4.93;;
76284;SDS011;71676;50.998;7.098;2023-09-07T07:22:10;9.00;;;4.65;;
76284;SDS011;71676;50.998;7.098;2023-09-07T07:24:37;9.57;;;5.22;;
76284;SDS011;71676;50.998;7.098;2023-09-07T07:27:03;8.75;;;4.60;;
76284;SDS011;71676;50.998;7.098;2023-09-07T07:29:30;10.25;;;5.03;;
76284;SDS011;71676;50.998;7.098;2023-09-07T07:31:57;10.65;;;4.80;;
76284;SDS011;71676;50.998;7.098;2023-09-07T07:34:23;12.93;;;5.40;;
76284;SDS011;71676;50.998;7.098;2023-09-07T07:36:50;9.38;;;4.47;;
76284;SDS011;71676;50.998;7.098;2023-09-07T07:39:18;11.30;;;4.15;;
76284;SDS011;71676;50.998;7.098;2023-09-07T07:41:45;9.63;;;4.70;;
76284;SDS011;71676;50.998;7.098;2023-09-07T07:44:12;11.77;;;4.90;;
76284;SDS011;71676;50.998;7.098;2023-09-07T07:46:39;10.48;;;4.80;;
76284;SDS011;71676;50.998;7.098;2023-09-07T07:49:05;11.43;;;4.93;;
76284;SDS011;71676;50.998;7.098;2023-09-07T07:51:32;9.95;;;4.90;;
76284;SDS011;71676;50.998;7.098;2023-09-07T07:53:59;11.52;;;4.80;;
76284;SDS011;71676;50.998;7.098;2023-09-07T07:56:27;8.00;;;3.92;;
76284;SDS011;71676;50.998;7.098;2023-09-07T07:58:53;7.70;;;4.03;;
76284;SDS011;71676;50.998;7.098;2023-09-07T08:01:20;6.25;;;3.55;;
76284;SDS011;71676;50.998;7.098;2023-09-07T08:03:47;6.75;;;3.80;;
76284;SDS011;71676;50.998;7.098;2023-09-07T08:06:13;8.00;;;4.20;;
76284;SDS011;71676;50.998;7.098;2023-09-07T08:08:40;10.85;;;4.45;;
76284;SDS011;71676;50.998;7.098;2023-09-07T08:11:07;8.57;;;4.13;;
76284;SDS011;71676;50.998;7.098;2023-09-07T08:13:35;6.97;;;3.70;;
76284;SDS011;71676;50.998;7.098;2023-09-07T08:16:02;7.28;;;3.83;;
76284;SDS011;71676;50.998;7.098;2023-09-07T08:18:29;8.95;;;3.55;;
76284;SDS011;71676;50.998;7.098;2023-09-07T08:20:57;9.55;;;3.92;;
76284;SDS011;71676;50.998;7.098;2023-09-07T08:23:23;8.18;;;3.90;;
76284;SDS011;71676;50.998;7.098;2023-09-07T08:25:50;7.93;;;4.10;;
76284;SDS011;71676;50.998;7.098;2023-09-07T08:28:17;6.10;;;3.60;;
76284;SDS011;71676;50.998;7.098;2023-09-07T08:30:48;8.07;;;4.35;;
76284;SDS011;71676;50.998;7.098;2023-09-07T08:33:15;10.32;;;3.53;;
76284;SDS011;71676;50.998;7.098;2023-09-07T08:35:42;7.95;;;3.83;;
76284;SDS011;71676;50.998;7.098;2023-09-07T08:38:10;6.90;;;3.90;;
76284;SDS011;71676;50.998;7.098;2023-09-07T08:40:37;6.97;;;3.90;;
76284;SDS011;71676;50.998;7.098;2023-09-07T08:43:06;7.32;;;4.07;;
76284;SDS011;71676;50.998;7.098;2023-09-07T08:45:37;7.35;;;3.45;;
76284;SDS011;71676;50.998;7.098;2023-09-07T08:48:08;8.23;;;4.28;;
76284;SDS011;71676;50.998;7.098;2023-09-07T08:50:37;7.70;;;4.00;;
76284;SDS011;71676;50.998;7.098;2023-09-07T08:53:07;7.68;;;3.90;;
76284;SDS011;71676;50.998;7.098;2023-09-07T08:55:34;7.22;;;3.63;;
76284;SDS011;71676;50.998;7.098;2023-09-07T08:58:01;7.82;;;3.42;;
76284;SDS011;71676;50.998;7.098;2023-09-07T09:00:28;8.70;;;3.53;;
76284;SDS011;71676;50.998;7.098;2023-09-07T09:02:55;8.38;;;3.95;;
76284;SDS011;71676;50.998;7.098;2023-09-07T09:05:24;9.55;;;3.80;;
76284;SDS011;71676;50.998;7.098;2023-09-07T09:08:01;8.57;;;3.25;;
76284;SDS011;71676;50.998;7.098;2023-09-07T09:10:29;8.82;;;3.63;;
76284;SDS011;71676;50.998;7.098;2023-09-07T09:12:55;7.13;;;3.67;;
76284;SDS011;71676;50.998;7.098;2023-09-07T09:15:24;6.78;;;3.55;;
76284;SDS011;71676;50.998;7.098;2023-09-07T09:17:51;6.95;;;3.47;;
76284;SDS011;71676;50.998;7.098;2023-09-07T09:20:22;6.57;;;3.65;;
76284;SDS011;71676;50.998;7.098;2023-09-07T09:22:53;6.50;;;3.50;;
76284;SDS011;71676;50.998;7.098;2023-09-07T09:25:21;9.13;;;4.18;;
76284;SDS011;71676;50.998;7.098;2023-09-07T09:27:48;6.30;;;3.50;;
76284;SDS011;71676;50.998;7.098;2023-09-07T09:30:15;8.45;;;3.80;;
76284;SDS011;71676;50.998;7.098;2023-09-07T09:32:41;6.32;;;3.45;;
76284;SDS011;71676;50.998;7.098;2023-09-07T09:35:09;7.47;;;3.42;;
76284;SDS011;71676;50.998;7.098;2023-09-07T09:37:43;8.02;;;3.45;;
76284;SDS011;71676;50.998;7.098;2023-09-07T09:40:12;7.13;;;3.28;;
76284;SDS011;71676;50.998;7.098;2023-09-07T09:42:40;6.60;;;3.30;;
76284;SDS011;71676;50.998;7.098;2023-09-07T09:45:08;6.72;;;3.75;;
76284;SDS011;71676;50.998;7.098;2023-09-07T09:47:36;6.80;;;3.33;;
76284;SDS011;71676;50.998;7.098;2023-09-07T09:50:05;7.45;;;3.50;;
76284;SDS011;71676;50.998;7.098;2023-09-07T09:52:32;7.07;;;3.95;;
76284;SDS011;71676;50.998;7.098;2023-09-07T09:55:01;5.88;;;3.60;;
76284;SDS011;71676;50.998;7.098;2023-09-07T09:57:32;6.60;;;3.50;;
76284;SDS011;71676;50.998;7.098;2023-09-07T09:59:59;9.52;;;3.90;;
76284;SDS011;71676;50.998;7.098;2023-09-07T10:02:33;8.82;;;3.50;;
76284;SDS011;71676;50.998;7.098;2023-09-07T10:05:03;6.97;;;4.15;;
76284;SDS011;71676;50.998;7.098;2023-09-07T10:07:40;8.57;;;3.40;;
76284;SDS011;71676;50.998;7.098;2023-09-07T10:10:09;8.25;;;3.47;;
76284;SDS011;71676;50.998;7.098;2023-09-07T10:12:41;7.18;;;3.30;;
76284;SDS011;71676;50.998;7.098;2023-09-07T10:15:19;6.40;;;3.55;;
76284;SDS011;71676;50.998;7.098;2023-09-07T10:17:46;6.97;;;3.60;;
76284;SDS011;71676;50.998;7.098;2023-09-07T10:20:15;6.50;;;3.50;;
76284;SDS011;71676;50.998;7.098;2023-09-07T10:22:42;6.78;;;3.22;;
76284;SDS011;71676;50.998;7.098;2023-09-07T10:25:17;6.53;;;3.42;;
76284;SDS011;71676;50.998;7.098;2023-09-07T10:27:46;6.65;;;3.38;;
76284;SDS011;71676;50.998;7.098;2023-09-07T10:30:13;7.97;;;3.40;;
76284;SDS011;71676;50.998;7.098;2023-09-07T10:32:44;6.55;;;3.42;;
76284;SDS011;71676;50.998;7.098;2023-09-07T10:35:14;6.90;;;3.45;;
76284;SDS011;71676;50.998;7.098;2023-09-07T10:37:43;7.68;;;3.70;;
76284;SDS011;71676;50.998;7.098;2023-09-07T10:40:11;6.68;;;3.00;;
76284;SDS011;71676;50.998;7.098;2023-09-07T10:42:39;6.03;;;3.05;;
76284;SDS011;71676;50.998;7.098;2023-09-07T10:45:10;5.93;;;2.90;;
76284;SDS011;71676;50.998;7.098;2023-09-07T10:47:40;6.90;;;3.50;;
76284;SDS011;71676;50.998;7.098;2023-09-07T10:50:09;6.63;;;3.35;;
76284;SDS011;71676;50.998;7.098;2023-09-07T10:52:37;6.32;;;3.60;;
76284;SDS011;71676;50.998;7.098;2023-09-07T10:55:05;7.70;;;3.22;;
76284;SDS011;71676;50.998;7.098;2023-09-07T10:57:32;6.80;;;3.30;;
76284;SDS011;71676;50.998;7.098;2023-09-07T11:00:08;6.25;;;3.53;;
76284;SDS011;71676;50.998;7.098;2023-09-07T11:02:37;6.28;;;3.42;;
76284;SDS011;71676;50.998;7.098;2023-09-07T11:05:04;5.97;;;3.67;;
76284;SDS011;71676;50.998;7.098;2023-09-07T11:07:31;6.30;;;3.20;;
76284;SDS011;71676;50.998;7.098;2023-09-07T11:09:58;6.50;;;3.17;;
76284;SDS011;71676;50.998;7.098;2023-09-07T11:12:25;7.28;;;3.10;;
76284;SDS011;71676;50.998;7.098;2023-09-07T11:14:53;6.05;;;3.50;;
76284;SDS011;71676;50.998;7.098;2023-09-07T11:17:25;6.40;;;2.95;;
76284;SDS011;71676;50.998;7.098;2023-09-07T11:19:53;7.10;;;3.10;;
76284;SDS011;71676;50.998;7.098;2023-09-07T11:22:20;6.40;;;3.28;;
76284;SDS011;71676;50.998;7.098;2023-09-07T11:24:47;7.97;;;3.33;;
76284;SDS011;71676;50.998;7.098;2023-09-07T11:27:16;6.82;;;3.22;;
76284;SDS011;71676;50.998;7.098;2023-09-07T11:29:49;8.13;;;3.30;;
76284;SDS011;71676;50.998;7.098;2023-09-07T11:32:17;7.32;;;3.40;;
76284;SDS011;71676;50.998;7.098;2023-09-07T11:34:48;7.50;;;3.20;;
76284;SDS011;71676;50.998;7.098;2023-09-07T11:37:17;5.97;;;3.50;;
76284;SDS011;71676;50.998;7.098;2023-09-07T11:39:44;6.57;;;3.28;;
76284;SDS011;71676;50.998;7.098;2023-09-07T11:42:11;6.57;;;3.33;;
76284;SDS011;71676;50.998;7.098;2023-09-07T11:44:37;6.50;;;3.40;;
76284;SDS011;71676;50.998;7.098;2023-09-07T11:47:04;6.65;;;3.20;;
76284;SDS011;71676;50.998;7.098;2023-09-07T11:49:31;6.70;;;3.10;;
76284;SDS011;71676;50.998;7.098;2023-09-07T11:51:58;6.60;;;3.72;;
76284;SDS011;71676;50.998;7.098;2023-09-07T11:54:27;6.63;;;3.38;;
76284;SDS011;71676;50.998;7.098;2023-09-07T11:56:53;7.13;;;3.55;;
76284;SDS011;71676;50.998;7.098;2023-09-07T11:59:20;5.60;;;3.25;;
76284;SDS011;71676;50.998;7.098;2023-09-07T12:01:47;6.72;;;3.53;;
76284;SDS011;71676;50.998;7.098;2023-09-07T12:04:13;6.75;;;3.42;;
76284;SDS011;71676;50.998;7.098;2023-09-07T12:06:40;6.80;;;3.22;;
76284;SDS011;71676;50.998;7.098;2023-09-07T12:09:06;9.60;;;3.75;;
76284;SDS011;71676;50.998;7.098;2023-09-07T12:11:35;6.35;;;3.25;;
76284;SDS011;71676;50.998;7.098;2023-09-07T12:14:02;6.55;;;3.58;;
76284;SDS011;71676;50.998;7.098;2023-09-07T12:16:30;5.43;;;3.00;;
76284;SDS011;71676;50.998;7.098;2023-09-07T12:18:57;8.13;;;3.55;;
76284;SDS011;71676;50.998;7.098;2023-09-07T12:21:24;6.13;;;3.15;;
76284;SDS011;71676;50.998;7.098;2023-09-07T12:23:50;5.40;;;3.10;;
76284;SDS011;71676;50.998;7.098;2023-09-07T12:26:17;8.25;;;3.42;;
76284;SDS011;71676;50.998;7.098;2023-09-07T12:28:47;7.53;;;3.35;;
76284;SDS011;71676;50.998;7.098;2023-09-07T12:31:14;7.55;;;3.30;;
76284;SDS011;71676;50.998;7.098;2023-09-07T12:33:41;7.50;;;3.83;;
76284;SDS011;71676;50.998;7.098;2023-09-07T12:36:08;5.85;;;3.65;;
76284;SDS011;71676;50.998;7.098;2023-09-07T12:38:36;5.70;;;3.30;;
76284;SDS011;71676;50.998;7.098;2023-09-07T12:41:03;5.95;;;3.25;;
76284;SDS011;71676;50.998;7.098;2023-09-07T12:43:30;6.55;;;3.05;;
76284;SDS011;71676;50.998;7.098;2023-09-07T12:45:58;7.70;;;3.30;;
76284;SDS011;71676;50.998;7.098;2023-09-07T12:48:25;6.20;;;3.40;;
76284;SDS011;71676;50.998;7.098;2023-09-07T12:50:52;8.60;;;3.38;;
76284;SDS011;71676;50.998;7.098;2023-09-07T12:53:19;6.45;;;3.05;;
76284;SDS011;71676;50.998;7.098;2023-09-07T12:55:49;7.25;;;3.33;;
76284;SDS011;71676;50.998;7.098;2023-09-07T12:58:16;7.28;;;3.78;;
76284;SDS011;71676;50.998;7.098;2023-09-07T13:00:43;7.57;;;3.78;;
76284;SDS011;71676;50.998;7.098;2023-09-07T13:03:11;6.47;;;3.60;;
76284;SDS011;71676;50.998;7.098;2023-09-07T13:05:38;6.50;;;3.30;;
76284;SDS011;71676;50.998;7.098;2023-09-07T13:08:04;8.30;;;3.80;;
76284;SDS011;71676;50.998;7.098;2023-09-07T13:10:31;6.80;;;3.55;;
76284;SDS011;71676;50.998;7.098;2023-09-07T13:12:58;7.63;;;3.15;;
76284;SDS011;71676;50.998;7.098;2023-09-07T13:15:25;6.50;;;3.05;;
76284;SDS011;71676;50.998;7.098;2023-09-07T13:17:51;6.45;;;3.92;;
76284;SDS011;71676;50.998;7.098;2023-09-07T13:20:19;9.05;;;3.83;;
76284;SDS011;71676;50.998;7.098;2023-09-07T13:22:46;8.50;;;3.70;;
76284;SDS011;71676;50.998;7.098;2023-09-07T13:25:13;5.53;;;3.25;;
76284;SDS011;71676;50.998;7.098;2023-09-07T13:27:39;8.60;;;3.78;;
76284;SDS011;71676;50.998;7.098;2023-09-07T13:30:06;7.90;;;3.60;;
76284;SDS011;71676;50.998;7.098;2023-09-07T13:32:34;6.63;;;3.65;;
76284;SDS011;71676;50.998;7.098;2023-09-07T13:35:00;8.77;;;3.60;;
76284;SDS011;71676;50.998;7.098;2023-09-07T13:37:29;7.95;;;3.33;;
76284;SDS011;71676;50.998;7.098;2023-09-07T13:39:55;7.03;;;3.25;;
76284;SDS011;71676;50.998;7.098;2023-09-07T13:42:22;6.97;;;3.60;;
76284;SDS011;71676;50.998;7.098;2023-09-07T13:44:49;7.07;;;3.58;;
76284;SDS011;71676;50.998;7.098;2023-09-07T13:47:15;7.25;;;3.75;;
76284;SDS011;71676;50.998;7.098;2023-09-07T13:49:42;6.88;;;3.38;;
76284;SDS011;71676;50.998;7.098;2023-09-07T13:52:08;6.85;;;3.63;;
76284;SDS011;71676;50.998;7.098;2023-09-07T13:54:37;6.68;;;3.50;;
76284;SDS011;71676;50.998;7.098;2023-09-07T13:57:03;6.28;;;3.40;;
76284;SDS011;71676;50.998;7.098;2023-09-07T13:59:30;6.90;;;3.13;;
76284;SDS011;71676;50.998;7.098;2023-09-07T14:01:59;7.03;;;3.75;;
76284;SDS011;71676;50.998;7.098;2023-09-07T14:04:26;5.95;;;3.20;;
76284;SDS011;71676;50.998;7.098;2023-09-07T14:06:53;7.40;;;4.00;;
76284;SDS011;71676;50.998;7.098;2023-09-07T14:09:20;7.72;;;3.50;;
76284;SDS011;71676;50.998;7.098;2023-09-07T14:11:49;6.53;;;3.33;;
76284;SDS011;71676;50.998;7.098;2023-09-07T14:14:16;5.72;;;3.25;;
76284;SDS011;71676;50.998;7.098;2023-09-07T14:16:43;6.28;;;3.20;;
76284;SDS011;71676;50.998;7.098;2023-09-07T14:19:10;7.60;;;3.30;;
76284;SDS011;71676;50.998;7.098;2023-09-07T14:21:36;7.18;;;3.30;;
76284;SDS011;71676;50.998;7.098;2023-09-07T14:24:03;5.93;;;3.20;;
76284;SDS011;71676;50.998;7.098;2023-09-07T14:26:30;7.90;;;3.58;;
76284;SDS011;71676;50.998;7.098;2023-09-07T14:28:58;6.00;;;3.47;;
76284;SDS011;71676;50.998;7.098;2023-09-07T14:31:25;7.45;;;3.40;;
76284;SDS011;71676;50.998;7.098;2023-09-07T14:33:51;8.68;;;3.50;;
76284;SDS011;71676;50.998;7.098;2023-09-07T14:36:18;5.95;;;3.00;;
76284;SDS011;71676;50.998;7.098;2023-09-07T14:38:45;6.57;;;2.92;;
76284;SDS011;71676;50.998;7.098;2023-09-07T14:41:11;7.35;;;2.88;;
76284;SDS011;71676;50.998;7.098;2023-09-07T14:43:44;5.10;;;3.00;;
76284;SDS011;71676;50.998;7.098;2023-09-07T14:46:12;5.80;;;3.00;;
76284;SDS011;71676;50.998;7.098;2023-09-07T14:48:39;7.07;;;3.15;;